sensor_id;sensor_type;location;lat;lon;timestamp;pressure;altitude;pressure_sealevel;temperature;humidity
67434;BME280;54305;47.950;6.572;2023-02-01T00:00:52;95269.94;;;0.95;100.00
67434;BME280;54305;47.950;6.572;2023-02-01T00:03:17;95271.59;;;0.96;100.00
67434;BME280;54305;47.950;6.572;2023-02-01T00:05:43;95270.03;;;0.93;100.00
67434;BME280;54305;47.950;6.572;2023-02-01T00:08:09;95256.94;;;0.98;100.00
67434;BME280;54305;47.950;6.572;2023-02-01T00:10:34;95256.94;;;0.98;100.00
67434;BME280;54305;47.950;6.572;2023-02-01T00:12:59;95261.25;;;0.97;100.00
67434;BME280;54305;47.950;6.572;2023-02-01T00:15:24;95255.13;;;1.00;100.00
67434;BME280;54305;47.950;6.572;2023-02-01T00:17:53;95244.88;;;1.00;100.00
67434;BME280;54305;47.950;6.572;2023-02-01T00:20:19;95248.03;;;1.05;100.00
67434;BME280;54305;47.950;6.572;2023-02-01T00:22:44;95245.28;;;1.08;100.00
67434;BME280;54305;47.950;6.572;2023-02-01T00:25:10;95243.88;;;1.02;100.00
67434;BME280;54305;47.950;6.572;2023-02-01T00:27:35;95243.63;;;1.07;100.00
67434;BME280;54305;47.950;6.572;2023-02-01T00:30:00;95237.78;;;1.05;100.00
67434;BME280;54305;47.950;6.572;2023-02-01T00:32:25;95224.03;;;1.06;100.00
67434;BME280;54305;47.950;6.572;2023-02-01T00:34:51;95221.28;;;1.08;100.00
67434;BME280;54305;47.950;6.572;2023-02-01T00:37:16;95215.41;;;1.07;100.00
67434;BME280;54305;47.950;6.572;2023-02-01T00:39:41;95229.16;;;1.06;100.00
67434;BME280;54305;47.950;6.572;2023-02-01T00:42:06;95226.00;;;1.01;100.00
67434;BME280;54305;47.950;6.572;2023-02-01T00:44:32;95221.63;;;1.02;100.00
67434;BME280;54305;47.950;6.572;2023-02-01T00:46:59;95226.00;;;1.01;100.00
67434;BME280;54305;47.950;6.572;2023-02-01T00:49:25;95226.94;;;1.00;100.00
67434;BME280;54305;47.950;6.572;2023-02-01T00:51:53;95220.88;;;1.01;100.00
67434;BME280;54305;47.950;6.572;2023-02-01T00:54:18;95214.00;;;1.01;100.00
67434;BME280;54305;47.950;6.572;2023-02-01T00:56:43;95217.56;;;0.98;100.00
67434;BME280;54305;47.950;6.572;2023-02-01T00:59:12;95219.25;;;1.00;100.00
67434;BME280;54305;47.950;6.572;2023-02-01T01:01:37;95208.06;;;1.01;100.00
67434;BME280;54305;47.950;6.572;2023-02-01T01:04:02;95210.63;;;1.01;100.00
67434;BME280;54305;47.950;6.572;2023-02-01T01:06:29;95202.88;;;1.02;100.00
67434;BME280;54305;47.950;6.572;2023-02-01T01:08:55;95208.78;;;1.02;100.00
67434;BME280;54305;47.950;6.572;2023-02-01T01:11:25;95203.66;;;1.02;100.00
67434;BME280;54305;47.950;6.572;2023-02-01T01:13:51;95215.56;;;1.03;100.00
67434;BME280;54305;47.950;6.572;2023-02-01T01:16:17;95217.16;;;1.06;100.00
67434;BME280;54305;47.950;6.572;2023-02-01T01:18:43;95215.56;;;1.03;100.00
67434;BME280;54305;47.950;6.572;2023-02-01T01:21:09;95222.38;;;1.05;100.00
67434;BME280;54305;47.950;6.572;2023-02-01T01:23:36;95219.06;;;1.02;100.00
67434;BME280;54305;47.950;6.572;2023-02-01T01:26:04;95222.53;;;1.02;100.00
67434;BME280;54305;47.950;6.572;2023-02-01T01:28:30;95216.41;;;1.04;100.00
67434;BME280;54305;47.950;6.572;2023-02-01T01:30:55;95224.19;;;1.02;100.00
67434;BME280;54305;47.950;6.572;2023-02-01T01:33:20;95229.16;;;1.06;100.00
67434;BME280;54305;47.950;6.572;2023-02-01T01:35:45;95227.50;;;1.05;100.00
67434;BME280;54305;47.950;6.572;2023-02-01T01:38:11;95221.47;;;1.06;100.00
67434;BME280;54305;47.950;6.572;2023-02-01T01:40:36;95230.97;;;1.03;100.00
67434;BME280;54305;47.950;6.572;2023-02-01T01:43:01;95216.84;;;0.97;100.00
67434;BME280;54305;47.950;6.572;2023-02-01T01:45:31;95214.41;;;0.93;100.00
67434;BME280;54305;47.950;6.572;2023-02-01T01:48:07;95200.72;;;0.95;100.00
67434;BME280;54305;47.950;6.572;2023-02-01T01:50:42;95200.72;;;0.95;100.00
67434;BME280;54305;47.950;6.572;2023-02-01T01:53:08;95207.66;;;0.93;100.00
67434;BME280;54305;47.950;6.572;2023-02-01T01:55:37;95213.03;;;0.88;100.00
67434;BME280;54305;47.950;6.572;2023-02-01T01:58:05;95213.03;;;0.88;100.00
67434;BME280;54305;47.950;6.572;2023-02-01T02:00:31;95213.09;;;0.87;100.00
67434;BME280;54305;47.950;6.572;2023-02-01T02:03:58;95223.38;;;0.87;100.00
67434;BME280;54305;47.950;6.572;2023-02-01T02:05:53;95220.38;;;0.78;100.00
67434;BME280;54305;47.950;6.572;2023-02-01T02:08:20;95214.44;;;0.78;100.00
67434;BME280;54305;47.950;6.572;2023-02-01T02:10:50;95212.59;;;0.80;100.00
67434;BME280;54305;47.950;6.572;2023-02-01T02:13:25;95210.78;;;0.82;100.00
67434;BME280;54305;47.950;6.572;2023-02-01T02:18:44;95202.28;;;0.82;100.00
67434;BME280;54305;47.950;6.572;2023-02-01T02:21:16;95206.50;;;0.82;100.00
67434;BME280;54305;47.950;6.572;2023-02-01T02:23:47;95218.38;;;0.83;100.00
67434;BME280;54305;47.950;6.572;2023-02-01T02:36:42;95175.31;;;0.74;100.00
67434;BME280;54305;47.950;6.572;2023-02-01T02:39:22;95188.31;;;0.72;100.00
67434;BME280;54305;47.950;6.572;2023-02-01T02:44:44;95181.53;;;0.71;100.00
67434;BME280;54305;47.950;6.572;2023-02-01T02:50:36;95167.81;;;0.72;100.00
67434;BME280;54305;47.950;6.572;2023-02-01T02:53:30;95171.84;;;0.76;100.00
67434;BME280;54305;47.950;6.572;2023-02-01T02:56:16;95173.66;;;0.73;100.00
67434;BME280;54305;47.950;6.572;2023-02-01T02:59:02;95180.28;;;0.77;100.00
67434;BME280;54305;47.950;6.572;2023-02-01T03:01:47;95175.06;;;0.79;100.00
67434;BME280;54305;47.950;6.572;2023-02-01T03:04:32;95172.59;;;0.77;100.00
67434;BME280;54305;47.950;6.572;2023-02-01T03:06:57;95169.28;;;0.76;100.00
67434;BME280;54305;47.950;6.572;2023-02-01T03:09:26;95169.28;;;0.76;100.00
67434;BME280;54305;47.950;6.572;2023-02-01T03:11:52;95164.16;;;0.76;100.00
67434;BME280;54305;47.950;6.572;2023-02-01T03:14:42;95168.53;;;0.73;100.00
67434;BME280;54305;47.950;6.572;2023-02-01T03:17:11;95159.63;;;0.81;100.00
67434;BME280;54305;47.950;6.572;2023-02-01T03:19:39;95153.06;;;0.75;100.00
67434;BME280;54305;47.950;6.572;2023-02-01T03:22:10;95147.09;;;0.74;100.00
67434;BME280;54305;47.950;6.572;2023-02-01T03:24:38;95159.03;;;0.76;100.00
67434;BME280;54305;47.950;6.572;2023-02-01T03:29:52;95160.34;;;0.82;100.00
67434;BME280;54305;47.950;6.572;2023-02-01T03:32:19;95174.72;;;0.85;100.00
67434;BME280;54305;47.950;6.572;2023-02-01T03:34:45;95175.56;;;0.86;100.00
67434;BME280;54305;47.950;6.572;2023-02-01T03:37:11;95180.00;;;0.82;100.00
67434;BME280;54305;47.950;6.572;2023-02-01T03:42:04;95170.03;;;0.77;100.00
67434;BME280;54305;47.950;6.572;2023-02-01T03:47:03;95186.31;;;0.77;100.00
67434;BME280;54305;47.950;6.572;2023-02-01T03:49:33;95172.59;;;0.77;100.00
67434;BME280;54305;47.950;6.572;2023-02-01T03:51:59;95169.28;;;0.76;100.00
67434;BME280;54305;47.950;6.572;2023-02-01T03:54:25;95186.13;;;0.79;100.00
67434;BME280;54305;47.950;6.572;2023-02-01T03:56:51;95195.72;;;0.76;100.00
67434;BME280;54305;47.950;6.572;2023-02-01T03:59:19;95191.44;;;0.77;100.00
67434;BME280;54305;47.950;6.572;2023-02-01T04:01:44;95201.50;;;0.79;100.00
67434;BME280;54305;47.950;6.572;2023-02-01T04:04:09;95208.47;;;0.77;100.00
67434;BME280;54305;47.950;6.572;2023-02-01T04:06:34;95217.88;;;0.77;100.00
67434;BME280;54305;47.950;6.572;2023-02-01T04:09:00;95215.59;;;0.73;100.00
67434;BME280;54305;47.950;6.572;2023-02-01T04:11:25;95214.94;;;0.69;100.00
67434;BME280;54305;47.950;6.572;2023-02-01T04:13:52;95202.19;;;0.68;100.00
67434;BME280;54305;47.950;6.572;2023-02-01T04:16:17;95213.44;;;0.65;100.00
67434;BME280;54305;47.950;6.572;2023-02-01T04:18:43;95210.94;;;0.63;100.00
67434;BME280;54305;47.950;6.572;2023-02-01T04:21:08;95205.22;;;0.58;100.00
67434;BME280;54305;47.950;6.572;2023-02-01T04:23:33;95201.84;;;0.58;100.00
67434;BME280;54305;47.950;6.572;2023-02-01T04:25:59;95194.25;;;0.57;100.00
67434;BME280;54305;47.950;6.572;2023-02-01T04:28:25;95207.78;;;0.58;100.00
67434;BME280;54305;47.950;6.572;2023-02-01T04:30:50;95202.81;;;0.55;100.00
67434;BME280;54305;47.950;6.572;2023-02-01T04:33:15;95213.75;;;0.59;100.00
67434;BME280;54305;47.950;6.572;2023-02-01T04:35:41;95211.94;;;0.61;100.00
67434;BME280;54305;47.950;6.572;2023-02-01T04:38:06;95206.00;;;0.61;100.00
67434;BME280;54305;47.950;6.572;2023-02-01T04:40:32;95207.78;;;0.58;100.00
67434;BME280;54305;47.950;6.572;2023-02-01T04:42:57;95206.88;;;0.59;100.00
67434;BME280;54305;47.950;6.572;2023-02-01T04:45:22;95202.50;;;0.62;100.00
67434;BME280;54305;47.950;6.572;2023-02-01T04:47:47;95198.19;;;0.62;100.00
67434;BME280;54305;47.950;6.572;2023-02-01T04:50:13;95193.91;;;0.63;100.00
67434;BME280;54305;47.950;6.572;2023-02-01T04:52:38;95192.09;;;0.64;100.00
67434;BME280;54305;47.950;6.572;2023-02-01T04:55:04;95191.94;;;0.68;100.00
67434;BME280;54305;47.950;6.572;2023-02-01T04:57:29;95193.75;;;0.66;100.00
67434;BME280;54305;47.950;6.572;2023-02-01T04:59:55;95198.88;;;0.66;100.00
67434;BME280;54305;47.950;6.572;2023-02-01T05:02:20;95186.06;;;0.66;100.00
67434;BME280;54305;47.950;6.572;2023-02-01T05:04:45;95183.19;;;0.72;100.00
67434;BME280;54305;47.950;6.572;2023-02-01T05:07:11;95187.66;;;0.68;100.00
67434;BME280;54305;47.950;6.572;2023-02-01T05:09:36;95189.09;;;0.72;100.00
67434;BME280;54305;47.950;6.572;2023-02-01T05:12:01;95204.50;;;0.72;100.00
67434;BME280;54305;47.950;6.572;2023-02-01T05:14:45;95203.69;;;0.72;100.00
67434;BME280;54305;47.950;6.572;2023-02-01T05:17:12;95207.81;;;0.74;100.00
67434;BME280;54305;47.950;6.572;2023-02-01T05:19:37;95217.88;;;0.77;100.00
67434;BME280;54305;47.950;6.572;2023-02-01T05:22:03;95216.25;;;0.76;100.00
67434;BME280;54305;47.950;6.572;2023-02-01T05:24:28;95230.63;;;0.78;100.00
67434;BME280;54305;47.950;6.572;2023-02-01T05:26:53;95235.75;;;0.78;100.00
67434;BME280;54305;47.950;6.572;2023-02-01T05:29:19;95223.84;;;0.77;100.00
67434;BME280;54305;47.950;6.572;2023-02-01T05:31:45;95226.25;;;0.81;100.00
67434;BME280;54305;47.950;6.572;2023-02-01T05:34:10;95223.50;;;0.83;100.00
67434;BME280;54305;47.950;6.572;2023-02-01T05:36:36;95225.34;;;0.82;100.00
67434;BME280;54305;47.950;6.572;2023-02-01T05:39:01;95232.13;;;0.82;100.00
67434;BME280;54305;47.950;6.572;2023-02-01T05:41:27;95227.84;;;0.83;100.00
67434;BME280;54305;47.950;6.572;2023-02-01T05:43:52;95221.72;;;0.86;100.00
67434;BME280;54305;47.950;6.572;2023-02-01T05:46:17;95236.09;;;0.88;100.00
67434;BME280;54305;47.950;6.572;2023-02-01T05:48:42;95223.38;;;0.87;100.00
67434;BME280;54305;47.950;6.572;2023-02-01T05:51:08;95233.63;;;0.87;100.00
67434;BME280;54305;47.950;6.572;2023-02-01T05:53:33;95224.88;;;0.91;100.00
67434;BME280;54305;47.950;6.572;2023-02-01T05:56:01;95223.22;;;0.90;100.00
67434;BME280;54305;47.950;6.572;2023-02-01T05:58:26;95232.56;;;0.91;100.00
67434;BME280;54305;47.950;6.572;2023-02-01T06:00:52;95241.91;;;0.92;100.00
67434;BME280;54305;47.950;6.572;2023-02-01T06:03:17;95227.16;;;0.95;100.00
67434;BME280;54305;47.950;6.572;2023-02-01T06:05:43;95248.50;;;0.96;100.00
67434;BME280;54305;47.950;6.572;2023-02-01T06:08:08;95244.13;;;0.98;100.00
67434;BME280;54305;47.950;6.572;2023-02-01T06:10:34;95250.16;;;0.97;100.00
67434;BME280;54305;47.950;6.572;2023-02-01T06:12:59;95242.47;;;0.97;100.00
67434;BME280;54305;47.950;6.572;2023-02-01T06:15:24;95237.50;;;0.93;100.00
67434;BME280;54305;47.950;6.572;2023-02-01T06:17:50;95235.78;;;0.94;100.00
67434;BME280;54305;47.950;6.572;2023-02-01T06:20:15;95249.44;;;0.95;100.00
67434;BME280;54305;47.950;6.572;2023-02-01T06:22:40;95244.19;;;0.96;100.00
67434;BME280;54305;47.950;6.572;2023-02-01T06:25:06;95248.34;;;0.98;100.00
67434;BME280;54305;47.950;6.572;2023-02-01T06:27:32;95248.34;;;0.98;100.00
67434;BME280;54305;47.950;6.572;2023-02-01T06:29:57;95242.31;;;1.00;100.00
67434;BME280;54305;47.950;6.572;2023-02-01T06:32:23;95243.06;;;1.02;100.00
67434;BME280;54305;47.950;6.572;2023-02-01T06:34:48;95245.78;;;0.98;100.00
67434;BME280;54305;47.950;6.572;2023-02-01T06:37:14;95246.19;;;1.07;100.00
67434;BME280;54305;47.950;6.572;2023-02-01T06:39:39;95250.47;;;1.06;100.00
67434;BME280;54305;47.950;6.572;2023-02-01T06:42:04;95245.63;;;1.02;100.00
67434;BME280;54305;47.950;6.572;2023-02-01T06:44:29;95248.03;;;1.05;100.00
67434;BME280;54305;47.950;6.572;2023-02-01T06:46:55;95249.81;;;1.02;100.00
67434;BME280;54305;47.950;6.572;2023-02-01T06:49:20;95256.78;;;1.01;100.00
67434;BME280;54305;47.950;6.572;2023-02-01T06:51:45;95249.81;;;1.02;100.00
67434;BME280;54305;47.950;6.572;2023-02-01T06:54:10;95258.28;;;1.05;100.00
67434;BME280;54305;47.950;6.572;2023-02-01T06:56:36;95259.94;;;1.06;100.00
67434;BME280;54305;47.950;6.572;2023-02-01T06:59:03;95263.41;;;1.05;100.00
67434;BME280;54305;47.950;6.572;2023-02-01T07:01:28;95254.81;;;1.06;100.00
67434;BME280;54305;47.950;6.572;2023-02-01T07:03:53;95254.81;;;1.06;100.00
67434;BME280;54305;47.950;6.572;2023-02-01T07:06:19;95259.94;;;1.06;100.00
67434;BME280;54305;47.950;6.572;2023-02-01T07:08:44;95252.97;;;1.08;100.00
67434;BME280;54305;47.950;6.572;2023-02-01T07:11:11;95261.59;;;1.07;100.00
67434;BME280;54305;47.950;6.572;2023-02-01T07:13:36;95258.09;;;1.08;100.00
67434;BME280;54305;47.950;6.572;2023-02-01T07:16:03;95259.59;;;1.12;100.00
67434;BME280;54305;47.950;6.572;2023-02-01T07:18:29;95265.66;;;1.11;100.00
67434;BME280;54305;47.950;6.572;2023-02-01T07:20:55;95262.41;;;1.07;100.00
67434;BME280;54305;47.950;6.572;2023-02-01T07:23:21;95259.75;;;1.08;100.00
67434;BME280;54305;47.950;6.572;2023-02-01T07:25:46;95262.09;;;1.13;100.00
67434;BME280;54305;47.950;6.572;2023-02-01T07:28:11;95262.91;;;1.13;100.00
67434;BME280;54305;47.950;6.572;2023-02-01T07:30:37;95266.22;;;1.16;100.00
67434;BME280;54305;47.950;6.572;2023-02-01T07:33:02;95262.81;;;1.15;100.00
67434;BME280;54305;47.950;6.572;2023-02-01T07:35:28;95260.94;;;1.19;100.00
67434;BME280;54305;47.950;6.572;2023-02-01T07:37:53;95259.44;;;1.15;100.00
67434;BME280;54305;47.950;6.572;2023-02-01T07:40:18;95267.72;;;1.20;100.00
67434;BME280;54305;47.950;6.572;2023-02-01T07:42:48;95262.41;;;1.23;100.00
67434;BME280;54305;47.950;6.572;2023-02-01T07:45:13;95252.13;;;1.23;100.00
67434;BME280;54305;47.950;6.572;2023-02-01T07:47:40;95256.97;;;1.29;100.00
67434;BME280;54305;47.950;6.572;2023-02-01T07:50:05;95254.41;;;1.29;100.00
67434;BME280;54305;47.950;6.572;2023-02-01T07:52:30;95261.91;;;1.32;100.00
67434;BME280;54305;47.950;6.572;2023-02-01T07:54:56;95268.88;;;1.30;100.00
67434;BME280;54305;47.950;6.572;2023-02-01T07:57:21;95272.16;;;1.32;100.00
67434;BME280;54305;47.950;6.572;2023-02-01T07:59:46;95267.03;;;1.32;100.00
67434;BME280;54305;47.950;6.572;2023-02-01T08:02:30;95268.53;;;1.36;100.00
67434;BME280;54305;47.950;6.572;2023-02-01T08:04:56;95273.66;;;1.36;100.00
67434;BME280;54305;47.950;6.572;2023-02-01T08:07:21;95279.94;;;1.30;100.00
67434;BME280;54305;47.950;6.572;2023-02-01T08:09:47;95287.75;;;1.29;100.00
67434;BME280;54305;47.950;6.572;2023-02-01T08:12:12;95300.31;;;1.33;100.00
67434;BME280;54305;47.950;6.572;2023-02-01T08:14:37;95294.69;;;1.27;100.00
67434;BME280;54305;47.950;6.572;2023-02-01T08:17:03;95292.19;;;1.25;100.00
67434;BME280;54305;47.950;6.572;2023-02-01T08:19:28;95298.00;;;1.29;100.00
67434;BME280;54305;47.950;6.572;2023-02-01T08:21:54;95306.44;;;1.31;100.00
67434;BME280;54305;47.950;6.572;2023-02-01T08:24:19;95314.72;;;1.36;100.00
67434;BME280;54305;47.950;6.572;2023-02-01T08:26:44;95314.47;;;1.25;100.00
67434;BME280;54305;47.950;6.572;2023-02-01T08:29:10;95316.84;;;1.27;100.00
67434;BME280;54305;47.950;6.572;2023-02-01T08:31:37;95321.84;;;1.31;100.00
67434;BME280;54305;47.950;6.572;2023-02-01T08:34:05;95311.56;;;1.31;100.00
67434;BME280;54305;47.950;6.572;2023-02-01T08:36:33;95312.50;;;1.30;100.00
67434;BME280;54305;47.950;6.572;2023-02-01T08:38:58;95315.84;;;1.30;100.00
67434;BME280;54305;47.950;6.572;2023-02-01T08:41:25;95316.53;;;1.34;100.00
67434;BME280;54305;47.950;6.572;2023-02-01T08:43:51;95315.72;;;1.33;100.00
67434;BME280;54305;47.950;6.572;2023-02-01T08:46:16;95320.00;;;1.33;100.00
67434;BME280;54305;47.950;6.572;2023-02-01T08:48:42;95325.97;;;1.33;100.00
67434;BME280;54305;47.950;6.572;2023-02-01T08:51:08;95314.72;;;1.36;100.00
67434;BME280;54305;47.950;6.572;2023-02-01T08:53:34;95321.41;;;1.38;100.00
67434;BME280;54305;47.950;6.572;2023-02-01T08:56:01;95323.00;;;1.41;100.00
67434;BME280;54305;47.950;6.572;2023-02-01T08:58:26;95317.84;;;1.41;100.00
67434;BME280;54305;47.950;6.572;2023-02-01T09:00:51;95317.84;;;1.41;100.00
67434;BME280;54305;47.950;6.572;2023-02-01T09:03:17;95314.44;;;1.40;100.00
67434;BME280;54305;47.950;6.572;2023-02-01T09:05:42;95321.19;;;1.43;100.00
67434;BME280;54305;47.950;6.572;2023-02-01T09:08:10;95327.19;;;1.42;100.00
67434;BME280;54305;47.950;6.572;2023-02-01T09:10:38;95323.81;;;1.41;100.00
67434;BME280;54305;47.950;6.572;2023-02-01T09:13:03;95326.47;;;1.40;100.00
67434;BME280;54305;47.950;6.572;2023-02-01T09:15:28;95343.38;;;1.44;100.00
67434;BME280;54305;47.950;6.572;2023-02-01T09:17:53;95344.19;;;1.44;100.00
67434;BME280;54305;47.950;6.572;2023-02-01T09:20:19;95338.97;;;1.46;100.00
67434;BME280;54305;47.950;6.572;2023-02-01T09:22:48;95338.81;;;1.49;100.00
67434;BME280;54305;47.950;6.572;2023-02-01T09:25:14;95341.53;;;1.46;100.00
67434;BME280;54305;47.950;6.572;2023-02-01T09:27:39;95343.19;;;1.47;100.00
67434;BME280;54305;47.950;6.572;2023-02-01T09:30:04;95346.31;;;1.52;100.00
67434;BME280;54305;47.950;6.572;2023-02-01T09:32:30;95350.66;;;1.51;100.00
67434;BME280;54305;47.950;6.572;2023-02-01T09:34:55;95354.13;;;1.50;100.00
67434;BME280;54305;47.950;6.572;2023-02-01T09:37:21;95345.00;;;1.45;100.00
67434;BME280;54305;47.950;6.572;2023-02-01T09:39:47;95336.25;;;1.49;100.00
67434;BME280;54305;47.950;6.572;2023-02-01T09:47:13;95345.00;;;1.45;100.00
67434;BME280;54305;47.950;6.572;2023-02-01T09:49:41;95329.47;;;1.48;100.00
67434;BME280;54305;47.950;6.572;2023-02-01T09:52:11;95335.47;;;1.47;100.00
67434;BME280;54305;47.950;6.572;2023-02-01T09:54:42;95345.44;;;1.53;100.00
67434;BME280;54305;47.950;6.572;2023-02-01T09:57:58;95346.31;;;1.52;100.00
67434;BME280;54305;47.950;6.572;2023-02-01T10:00:00;95346.50;;;1.49;100.00
67434;BME280;54305;47.950;6.572;2023-02-01T10:02:28;95340.31;;;1.53;100.00
67434;BME280;54305;47.950;6.572;2023-02-01T10:04:56;95327.28;;;1.56;100.00
67434;BME280;54305;47.950;6.572;2023-02-01T10:07:29;95328.94;;;1.57;100.00
67434;BME280;54305;47.950;6.572;2023-02-01T10:20:16;95349.47;;;1.57;100.00
67434;BME280;54305;47.950;6.572;2023-02-01T10:27:34;95359.59;;;1.60;100.00
67434;BME280;54305;47.950;6.572;2023-02-01T10:30:05;95363.88;;;1.75;100.00
67434;BME280;54305;47.950;6.572;2023-02-01T10:32:33;95367.22;;;1.77;100.00
67434;BME280;54305;47.950;6.572;2023-02-01T10:35:11;95359.09;;;1.84;100.00
67434;BME280;54305;47.950;6.572;2023-02-01T10:37:38;95370.84;;;1.73;100.00
67434;BME280;54305;47.950;6.572;2023-02-01T10:40:15;95365.63;;;1.74;100.00
67434;BME280;54305;47.950;6.572;2023-02-01T10:42:41;95369.00;;;1.75;100.00
67434;BME280;54305;47.950;6.572;2023-02-01T10:45:06;95364.06;;;1.72;100.00
67434;BME280;54305;47.950;6.572;2023-02-01T10:47:32;95363.31;;;1.70;100.00
67434;BME280;54305;47.950;6.572;2023-02-01T10:57:59;95351.97;;;1.74;100.00
67434;BME280;54305;47.950;6.572;2023-02-01T11:00:25;95352.13;;;1.71;100.00
67434;BME280;54305;47.950;6.572;2023-02-01T11:02:51;95351.81;;;1.77;100.00
67434;BME280;54305;47.950;6.572;2023-02-01T11:05:17;95344.84;;;1.79;100.00
67434;BME280;54305;47.950;6.572;2023-02-01T11:07:47;95337.69;;;1.84;100.00
67434;BME280;54305;47.950;6.572;2023-02-01T11:12:57;95332.72;;;1.81;100.00
67434;BME280;54305;47.950;6.572;2023-02-01T11:15:23;95325.59;;;1.86;100.00
67434;BME280;54305;47.950;6.572;2023-02-01T11:17:50;95330.41;;;1.92;100.00
67434;BME280;54305;47.950;6.572;2023-02-01T11:22:54;95322.88;;;1.89;100.00
67434;BME280;54305;47.950;6.572;2023-02-01T11:25:21;95322.50;;;1.95;100.00
67434;BME280;54305;47.950;6.572;2023-02-01T11:27:48;95325.44;;;1.89;100.00
67434;BME280;54305;47.950;6.572;2023-02-01T11:30:15;95326.84;;;1.94;100.00
67434;BME280;54305;47.950;6.572;2023-02-01T11:32:41;95330.72;;;2.01;100.00
67434;BME280;54305;47.950;6.572;2023-02-01T11:35:06;95327.66;;;1.95;100.00
67434;BME280;54305;47.950;6.572;2023-02-01T11:37:33;95330.06;;;1.98;100.00
67434;BME280;54305;47.950;6.572;2023-02-01T11:40:00;95337.84;;;1.96;100.00
67434;BME280;54305;47.950;6.572;2023-02-01T11:42:26;95319.94;;;1.95;100.00
67434;BME280;54305;47.950;6.572;2023-02-01T11:45:07;95317.13;;;1.99;100.00
67434;BME280;54305;47.950;6.572;2023-02-01T11:47:39;95306.19;;;1.96;100.00
67434;BME280;54305;47.950;6.572;2023-02-01T11:50:08;95309.59;;;1.96;100.00
67434;BME280;54305;47.950;6.572;2023-02-01T12:13:09;95310.06;;;2.46;100.00
67434;BME280;54305;47.950;6.572;2023-02-01T12:16:02;95320.81;;;2.39;100.00
67434;BME280;54305;47.950;6.572;2023-02-01T12:23:37;95306.34;;;2.22;100.00
67434;BME280;54305;47.950;6.572;2023-02-01T12:34:00;95296.00;;;2.24;100.00
67434;BME280;54305;47.950;6.572;2023-02-01T12:46:41;95266.38;;;2.18;100.00
67434;BME280;54305;47.950;6.572;2023-02-01T12:51:41;95266.25;;;2.20;100.00
67434;BME280;54305;47.950;6.572;2023-02-01T12:56:55;95261.22;;;2.18;100.00
67434;BME280;54305;47.950;6.572;2023-02-01T12:59:24;95246.97;;;2.13;100.00
67434;BME280;54305;47.950;6.572;2023-02-01T13:01:56;95254.13;;;2.08;100.00
67434;BME280;54305;47.950;6.572;2023-02-01T13:04:32;95241.00;;;2.12;100.00
67434;BME280;54305;47.950;6.572;2023-02-01T13:07:04;95248.25;;;2.20;100.00
67434;BME280;54305;47.950;6.572;2023-02-01T13:09:51;95255.53;;;2.27;100.00
67434;BME280;54305;47.950;6.572;2023-02-01T13:12:21;95250.03;;;2.33;100.00
67434;BME280;54305;47.950;6.572;2023-02-01T13:14:52;95243.97;;;2.34;100.00
67434;BME280;54305;47.950;6.572;2023-02-01T13:17:29;95238.28;;;2.29;100.00
67434;BME280;54305;47.950;6.572;2023-02-01T13:19:57;95230.50;;;2.31;100.00
67434;BME280;54305;47.950;6.572;2023-02-01T13:22:26;95232.50;;;2.26;100.00
67434;BME280;54305;47.950;6.572;2023-02-01T13:24:54;95225.16;;;2.34;100.00
67434;BME280;54305;47.950;6.572;2023-02-01T13:27:21;95221.69;;;2.35;100.00
67434;BME280;54305;47.950;6.572;2023-02-01T13:29:55;95220.94;;;2.33;100.00
67434;BME280;54305;47.950;6.572;2023-02-01T13:35:06;95230.59;;;2.43;100.00
67434;BME280;54305;47.950;6.572;2023-02-01T13:42:55;95227.16;;;2.29;100.00
67434;BME280;54305;47.950;6.572;2023-02-01T13:45:23;95236.34;;;2.33;100.00
67434;BME280;54305;47.950;6.572;2023-02-01T13:47:51;95226.84;;;2.35;100.00
67434;BME280;54305;47.950;6.572;2023-02-01T13:50:33;95236.09;;;2.37;100.00
67434;BME280;54305;47.950;6.572;2023-02-01T13:55:36;95232.16;;;2.32;100.00
67434;BME280;54305;47.950;6.572;2023-02-01T14:15:38;95234.69;;;2.18;100.00
67434;BME280;54305;47.950;6.572;2023-02-01T14:18:34;95224.59;;;2.15;100.00
67434;BME280;54305;47.950;6.572;2023-02-01T14:20:48;95234.84;;;2.15;100.00
67434;BME280;54305;47.950;6.572;2023-02-01T14:23:16;95226.06;;;2.19;100.00
67434;BME280;54305;47.950;6.572;2023-02-01T14:25:43;95217.00;;;2.13;100.00
67434;BME280;54305;47.950;6.572;2023-02-01T14:28:18;95220.94;;;2.19;100.00
67434;BME280;54305;47.950;6.572;2023-02-01T14:30:47;95238.81;;;2.20;100.00
67434;BME280;54305;47.950;6.572;2023-02-01T14:33:22;95236.97;;;2.22;100.00
67434;BME280;54305;47.950;6.572;2023-02-01T14:35:56;95243.41;;;2.15;100.00
67434;BME280;54305;47.950;6.572;2023-02-01T14:38:25;95244.50;;;2.11;100.00
67434;BME280;54305;47.950;6.572;2023-02-01T14:40:50;95246.81;;;2.16;100.00
67434;BME280;54305;47.950;6.572;2023-02-01T14:43:15;95245.13;;;2.15;100.00
67434;BME280;54305;47.950;6.572;2023-02-01T14:50:46;95252.69;;;2.18;100.00
67434;BME280;54305;47.950;6.572;2023-02-01T14:55:41;95253.06;;;2.26;100.00
67434;BME280;54305;47.950;6.572;2023-02-01T15:00:55;95259.50;;;2.33;100.00
67434;BME280;54305;47.950;6.572;2023-02-01T15:05:56;95261.34;;;2.31;100.00
67434;BME280;54305;47.950;6.572;2023-02-01T15:08:27;95266.28;;;2.34;100.00
67434;BME280;54305;47.950;6.572;2023-02-01T15:10:53;95265.38;;;2.35;100.00
67434;BME280;54305;47.950;6.572;2023-02-01T15:13:23;95263.91;;;2.31;100.00
67434;BME280;54305;47.950;6.572;2023-02-01T15:15:59;95266.47;;;2.31;100.00
67434;BME280;54305;47.950;6.572;2023-02-01T15:18:25;95273.44;;;2.29;100.00
67434;BME280;54305;47.950;6.572;2023-02-01T15:20:55;95285.38;;;2.30;100.00
67434;BME280;54305;47.950;6.572;2023-02-01T15:23:21;95275.28;;;2.27;100.00
67434;BME280;54305;47.950;6.572;2023-02-01T15:25:46;95275.63;;;2.21;100.00
67434;BME280;54305;47.950;6.572;2023-02-01T15:28:13;95277.28;;;2.22;100.00
67434;BME280;54305;47.950;6.572;2023-02-01T15:30:39;95285.91;;;2.21;100.00
67434;BME280;54305;47.950;6.572;2023-02-01T15:35:37;95280.78;;;2.21;100.00